KDFW/DFW METAR and TAF weather

Enter ICAO airport designator
Station Type Date Time Source
KDFW METAR 2020/01/28 21:04 UTC NOAA

KDFW 282104Z 17012KT 10SM BKN028 BKN039 16/11 A2972 RMK AO2 LTG DSNT W AND NW T01560111 $


Station Type Date Time Source
KDFW Decoded METAR 2020/01/28 21:04 UTC NOAA

DALLAS/FT. WORTH INTERNATIONAL AIRPORT , TX, United States (KDFW) 32-54N 097-02W 174M
Jan 28, 2020 - 04:04 PM EST / 2020.01.28 2104 UTC
Wind: from the S (170 degrees) at 14 MPH (12 KT):0
Visibility: 10 mile(s):0
Sky conditions: mostly cloudy
Weather: Lightning observed
Temperature: 60.1 F (15.6 C)
Dew Point: 52.0 F (11.1 C)
Relative Humidity: 74%
Pressure (altimeter): 29.72 in. Hg (1006 hPa)
ob: KDFW 282104Z 17012KT 10SM BKN028 BKN039 16/11 A2972 RMK AO2 LTG DSNT W AND NW T01560111
cycle: 21

Station Type Date Time Source
KDFW TAF 2020/01/28 21:59 UTC NOAA

TAF
AMD KDFW 282059Z 2821/2924 18012KT P6SM -SHRA VCTS SCT025CB BKN050
TEMPO 2821/2822 5SM -TSRA BKN015CB
FM282200 28012G22KT P6SM -SHRA VCTS BKN013CB
FM290000 30016G26KT P6SM OVC015
FM290300 33018G28KT P6SM OVC015
FM292100 35011KT P6SM BKN022

Example: see airport list